Meteo Giornale » Osservazioni meteo Italia » Bari-Palese Macchie

ore: 15:50 - Osservazioni Meteo Bari-Palese Macchie
Lat. 41° 8' N Lon. 16° 47' E Alt. 34 metri s.l.m.

poco_nuvoloso Europe/Rome

14 °C

Poco Nuvoloso

Temp. 24 Ore

8 °C

14 °C

Nord-Ovest

20.3 Km/h

Dew point 6 °C

Umidità 58 %

Visibilità  10 Km

Il sole sorge alle ore 07:08

Il sole tramonta alle ore 16:26

Data e Ora Cielo e Fenomeni T °C DP °C Um. % Pres. hPa Vis. km Vento km/h
Oggi h: 15:50 poco_nuvoloso Poco Nuvoloso 14 6 58 1005 10 NO 20.3
Oggi h: 15:20 poco_nuvoloso Poco Nuvoloso 14 6 58 1004 10 N/NO 24
Oggi h: 14:50 poco_nuvoloso Poco Nuvoloso 14 6 58 1004 10 NO 27.8
Oggi h: 14:20 poco_nuvoloso Poco Nuvoloso 14 6 58 1003 10 NO 33.3
Oggi h: 13:50 poco_nuvoloso Poco Nuvoloso 14 6 58 1003 10 NO 29.6
Oggi h: 12:50 nuvoloso Nuvoloso 13 7 66 1001 10 O/NO 24
Oggi h: 12:20 nuvoloso Nuvoloso 13 7 66 1001 10 NO 24
Oggi h: 11:50 nuvoloso Nuvoloso 13 7 66 1001 10 NO 25.9
Oggi h: 11:20 nuvoloso Nuvoloso 14 8 67 1000 10 NO 25.9
Oggi h: 10:50 nuvoloso Nuvoloso 13 7 66 1000 10 NO 24
Oggi h: 10:20 nuvoloso Nuvoloso 12 7 71 999 10 NO 25.9
Oggi h: 09:50 nuvoloso Nuvoloso 11 7 76 998 10 NO 35.2
Oggi h: 09:20 nuvoloso Nuvoloso 11 8 81 998 10 O/NO 24
Oggi h: 08:50 nuvoloso Nuvoloso 10 7 81 997 10 O/NO 22.2
Oggi h: 08:20 coperto_pioggia Pioggia Debole 9 7 87 996 10 O/NO 24
Oggi h: 07:50 nuvoloso Nuvoloso 9 5 75 994 10 O/NO 27.8
Oggi h: 07:20 coperto_pioggia Pioggia Debole 8 5 81 993 10 O 22.2
Oggi h: 06:50 coperto_pioggia Pioggia Debole 8 5 81 993 8 O 22.2
Oggi h: 06:20 coperto_pioggia Pioggia Debole 8 5 81 993 8 O/NO 22.2
Oggi h: 05:50 poco_nuvoloso Poco Nuvoloso 9 5 75 992 10 O 11.1
Oggi h: 05:20 poco_nuvoloso Poco Nuvoloso 10 4 66 991 10 O/NO 18.5
Oggi h: 04:50 poco_nuvoloso Poco Nuvoloso 10 4 66 991 10 O/NO 20.3
Oggi h: 03:50 poco_nuvoloso Poco Nuvoloso 9 5 75 990 10 O 20.3
Oggi h: 03:20 poco_nuvoloso Poco Nuvoloso 9 5 75 989 10 O 16.7
Oggi h: 02:50 poco_nuvoloso Poco Nuvoloso 9 6 81 989 10 O 18.5
Oggi h: 02:20 poco_nuvoloso Poco Nuvoloso 9 5 75 989 10 O/NO 20.3
Oggi h: 01:50 poco_nuvoloso Poco Nuvoloso 9 5 75 988 10 O/NO 20.3
Oggi h: 01:20 poco_nuvoloso Poco Nuvoloso 9 5 75 987 10 O/NO 24
Oggi h: 00:50 poco_nuvoloso Poco Nuvoloso 10 3 61 986 10 O/NO 29.6
Oggi h: 00:20 sereno Sereno 10 4 66 986 10 O 25.9
Ieri h: 23:50 sereno Sereno 10 5 71 985 10 O 18.5
Ieri h: 23:20 sereno Sereno 11 6 71 985 10 O 14.8
Ieri h: 22:50 nuvoloso Nuvoloso 11 8 81 984 10 O/SO 14.8
Ieri h: 22:20 coperto_pioggia Pioggia Debole 10 8 87 984 8 SO 22.2
Ieri h: 21:50 coperto_pioggia Pioggia 12 10 87 985 8 S/SO 18.5
Ieri h: 21:20 coperto_pioggia Pioviggine Leggera 13 9 76 985 10 S 22.2
Ieri h: 20:50 nuvoloso Nuvoloso 13 9 76 985 10 S 22.2
Ieri h: 20:20 coperto_pioggia Pioggia Debole 12 9 81 985 10 S/SO 22.2
Ieri h: 19:50 coperto_pioggia Pioggia 12 10 87 986 10 S 31.5
Ieri h: 19:20 coperto_pioggia Pioggia 12 10 87 987 10 S/SO 29.6
Ieri h: 18:50 coperto_pioggia Pioviggine 12 9 81 987 10 S 24
Ieri h: 18:20 coperto_pioggia Pioviggine 12 8 76 988 10 S 22.2
Ieri h: 17:50 nuvoloso Nuvoloso 13 7 66 989 10 S 18.5
Ieri h: 17:20 nuvoloso Nuvoloso 13 7 66 990 10 S/SO 20.3
Ieri h: 16:50 nuvoloso Nuvoloso 13 7 66 991 10 S/SO 16.7
Ieri h: 16:20 nuvoloso Nuvoloso 13 7 66 992 10 S 14.8
Ieri h: 15:50 nuvoloso Nuvoloso 13 7 66 993 10 S 13